Time;durP1;ratioP1;P1;durP2;ratioP2;P2;SDS_P1;SDS_P2;PMS_P1;PMS_P2;Temp;Humidity;BMP_temperature;BMP_pressure;BME280_temperature;BME280_humidity;BME280_pressure;Samples;Min_cycle;Max_cycle;Signal;HPM_P1;HPM_P2
2021/06/08 00:01:15;;;;;;;0.00;0.00;;;;;;;;;;5020975;28;20637;-66
2021/06/08 00:03:41;;;;;;;0.00;0.00;;;;;;;;;;5022135;28;20026;-66
2021/06/08 00:06:06;;;;;;;0.00;0.00;;;;;;;;;;5016368;28;20367;-66
2021/06/08 00:08:31;;;;;;;0.00;0.00;;;;;;;;;;5021745;28;20068;-66
2021/06/08 00:10:56;;;;;;;0.00;0.00;;;;;;;;;;5018404;28;20306;-66
2021/06/08 00:13:21;;;;;;;0.00;0.00;;;;;;;;;;5033687;28;20275;-66
2021/06/08 00:15:47;;;;;;;0.00;0.00;;;;;;;;;;5024060;28;20315;-66
2021/06/08 00:18:12;;;;;;;0.00;0.00;;;;;;;;;;5034431;28;20268;-66
2021/06/08 00:20:37;;;;;;;0.00;0.00;;;;;;;;;;5038138;28;20165;-66
2021/06/08 00:23:02;;;;;;;0.00;0.00;;;;;;;;;;5038465;28;20612;-66
2021/06/08 00:25:27;;;;;;;0.00;0.00;;;;;;;;;;5016377;28;20276;-66
2021/06/08 00:27:53;;;;;;;0.00;0.00;;;;;;;;;;5037593;28;20284;-66
2021/06/08 00:30:18;;;;;;;0.00;0.00;;;;;;;;;;5039352;28;20415;-66
2021/06/08 00:32:43;;;;;;;0.00;0.00;;;;;;;;;;5023157;28;20272;-66
2021/06/08 00:35:12;;;;;;;0.00;0.00;;;;;;;;;;5028624;28;20022;-67
2021/06/08 00:37:37;;;;;;;0.00;0.00;;;;;;;;;;5021590;28;20112;-66
2021/06/08 00:40:03;;;;;;;0.00;0.00;;;;;;;;;;5022085;28;20120;-66
2021/06/08 00:42:29;;;;;;;0.00;0.00;;;;;;;;;;5044711;28;20148;-66
2021/06/08 00:44:54;;;;;;;0.00;0.00;;;;;;;;;;5023134;28;20679;-66
2021/06/08 00:47:19;;;;;;;0.00;0.00;;;;;;;;;;5023878;28;20814;-66
2021/06/08 00:49:44;;;;;;;0.00;0.00;;;;;;;;;;5036661;28;20304;-66
2021/06/08 00:52:10;;;;;;;0.00;0.00;;;;;;;;;;5021080;28;20271;-66
2021/06/08 00:54:35;;;;;;;0.10;0.00;;;;;;;;;;5022991;28;20260;-66
2021/06/08 00:57:00;;;;;;;0.00;0.00;;;;;;;;;;5026239;28;20269;-66
2021/06/08 00:59:25;;;;;;;0.00;0.00;;;;;;;;;;5039086;28;20040;-66
2021/06/08 01:01:50;;;;;;;0.00;0.00;;;;;;;;;;5041282;28;20035;-66
2021/06/08 01:04:16;;;;;;;0.00;0.00;;;;;;;;;;5042141;28;20322;-66
2021/06/08 01:06:41;;;;;;;0.00;0.00;;;;;;;;;;5020502;28;20291;-67
2021/06/08 01:09:07;;;;;;;0.00;0.00;;;;;;;;;;5041303;28;20268;-66
2021/06/08 01:11:33;;;;;;;0.00;0.00;;;;;;;;;;5017887;28;20442;-66
2021/06/08 01:13:58;;;;;;;0.00;0.00;;;;;;;;;;5025766;28;20050;-66
2021/06/08 01:16:23;;;;;;;0.00;0.00;;;;;;;;;;5040083;28;20111;-66
2021/06/08 01:18:49;;;;;;;0.00;0.00;;;;;;;;;;5022179;28;21095;-65
2021/06/08 01:21:14;;;;;;;0.00;0.00;;;;;;;;;;5007849;28;20108;-66
2021/06/08 01:23:39;;;;;;;0.00;0.00;;;;;;;;;;5020964;28;20355;-65
2021/06/08 01:26:05;;;;;;;0.00;0.00;;;;;;;;;;5005832;28;20411;-67
2021/06/08 01:28:34;;;;;;;0.00;0.00;;;;;;;;;;5007561;28;20025;-66
2021/06/08 01:31:01;;;;;;;0.00;0.00;;;;;;;;;;5033791;28;20033;-66
2021/06/08 01:33:26;;;;;;;0.00;0.00;;;;;;;;;;5021202;28;20029;-66
2021/06/08 01:35:51;;;;;;;0.00;0.00;;;;;;;;;;5039947;28;20034;-66
2021/06/08 01:38:17;;;;;;;0.00;0.00;;;;;;;;;;5023500;28;20026;-66
2021/06/08 01:40:46;;;;;;;0.00;0.00;;;;;;;;;;5019847;28;20101;-66
2021/06/08 01:43:13;;;;;;;0.00;0.00;;;;;;;;;;5017267;28;20080;-66
2021/06/08 01:45:38;;;;;;;0.00;0.00;;;;;;;;;;5021356;28;20042;-66
2021/06/08 01:48:03;;;;;;;0.00;0.00;;;;;;;;;;5037758;28;20038;-66
2021/06/08 01:50:28;;;;;;;0.00;0.00;;;;;;;;;;5018252;28;20606;-66
2021/06/08 01:53:10;;;;;;;0.00;0.00;;;;;;;;;;5018374;28;20084;-72
2021/06/08 01:55:36;;;;;;;0.00;0.00;;;;;;;;;;5040003;28;20036;-72
2021/06/08 01:58:12;;;;;;;0.00;0.00;;;;;;;;;;5039489;28;20097;-72
2021/06/08 02:00:40;;;;;;;0.00;0.00;;;;;;;;;;5022417;28;20473;-72
2021/06/08 02:03:16;;;;;;;0.00;0.00;;;;;;;;;;5043440;28;20025;-72
2021/06/08 02:05:44;;;;;;;0.00;0.00;;;;;;;;;;5043967;28;20123;-72
2021/06/08 02:08:18;;;;;;;0.00;0.00;;;;;;;;;;5026013;28;20592;-73
2021/06/08 02:10:47;;;;;;;0.00;0.00;;;;;;;;;;5028337;28;20528;-73
2021/06/08 02:13:20;;;;;;;0.00;0.00;;;;;;;;;;5045179;28;20466;-73
2021/06/08 02:15:50;;;;;;;0.00;0.00;;;;;;;;;;5026407;28;20619;-73
2021/06/08 02:18:16;;;;;;;0.00;0.00;;;;;;;;;;5024786;28;20026;-72
2021/06/08 02:20:42;;;;;;;0.00;0.00;;;;;;;;;;5024267;28;20029;-72
2021/06/08 02:23:08;;;;;;;0.00;0.00;;;;;;;;;;5024553;28;20029;-72
2021/06/08 02:25:33;;;;;;;0.00;0.00;;;;;;;;;;5040357;28;20044;-72
2021/06/08 02:27:59;;;;;;;0.00;0.00;;;;;;;;;;5022381;28;20021;-72
2021/06/08 02:30:25;;;;;;;0.00;0.00;;;;;;;;;;5039907;28;20049;-73
2021/06/08 02:32:50;;;;;;;0.00;0.00;;;;;;;;;;5024010;28;20025;-73
2021/06/08 02:35:15;;;;;;;0.00;0.00;;;;;;;;;;5024369;28;20058;-73
2021/06/08 02:37:41;;;;;;;0.00;0.00;;;;;;;;;;5029257;28;20515;-73
2021/06/08 02:40:06;;;;;;;0.00;0.00;;;;;;;;;;5047688;28;20476;-74
2021/06/08 02:42:32;;;;;;;0.00;0.00;;;;;;;;;;5030410;28;20038;-72
2021/06/08 02:44:57;;;;;;;0.00;0.00;;;;;;;;;;5023529;28;20469;-73
2021/06/08 02:47:22;;;;;;;0.00;0.00;;;;;;;;;;5025235;28;20290;-74
2021/06/08 02:49:47;;;;;;;0.00;0.00;;;;;;;;;;5038466;28;20044;-73
2021/06/08 02:52:13;;;;;;;0.00;0.00;;;;;;;;;;5040096;28;20264;-72
2021/06/08 02:54:42;;;;;;;0.00;0.00;;;;;;;;;;5039875;28;20020;-73
2021/06/08 02:57:08;;;;;;;0.00;0.00;;;;;;;;;;5022442;28;20037;-73
2021/06/08 02:59:33;;;;;;;0.00;0.00;;;;;;;;;;5038749;28;20025;-72
2021/06/08 03:01:58;;;;;;;0.00;0.00;;;;;;;;;;5022730;28;20029;-72
2021/06/08 03:04:24;;;;;;;0.00;0.00;;;;;;;;;;5024038;28;20022;-72
2021/06/08 03:06:53;;;;;;;0.00;0.00;;;;;;;;;;5038494;28;20028;-73
2021/06/08 03:09:20;;;;;;;0.00;0.00;;;;;;;;;;5022001;28;20029;-73
2021/06/08 03:11:51;;;;;;;0.00;0.00;;;;;;;;;;5040226;28;20014;-73
2021/06/08 03:14:16;;;;;;;0.00;0.00;;;;;;;;;;5023543;28;20017;-73
2021/06/08 03:16:45;;;;;;;0.00;0.00;;;;;;;;;;5038669;28;20028;-73
2021/06/08 03:19:11;;;;;;;0.00;0.00;;;;;;;;;;5038716;28;20469;-73
2021/06/08 03:21:40;;;;;;;0.00;0.00;;;;;;;;;;5022141;28;20121;-73
2021/06/08 03:24:07;;;;;;;0.00;0.00;;;;;;;;;;5037289;28;20014;-73
2021/06/08 03:26:35;;;;;;;0.00;0.00;;;;;;;;;;5039151;28;20359;-73
2021/06/08 03:29:00;;;;;;;0.00;0.00;;;;;;;;;;5021414;28;20018;-73
2021/06/08 03:31:25;;;;;;;0.00;0.00;;;;;;;;;;5038391;28;20021;-72
2021/06/08 03:33:50;;;;;;;0.00;0.00;;;;;;;;;;5039360;28;20029;-72
2021/06/08 03:36:15;;;;;;;0.00;0.00;;;;;;;;;;5020588;28;20018;-72
2021/06/08 03:38:41;;;;;;;0.00;0.00;;;;;;;;;;5039418;28;20256;-72
2021/06/08 03:41:06;;;;;;;0.00;0.00;;;;;;;;;;5038471;28;20268;-72
2021/06/08 03:43:31;;;;;;;0.00;0.00;;;;;;;;;;5019207;28;20079;-72
2021/06/08 03:45:57;;;;;;;0.00;0.00;;;;;;;;;;5022144;28;20064;-72
2021/06/08 03:48:22;;;;;;;0.00;0.00;;;;;;;;;;5024617;28;20292;-72
2021/06/08 03:50:50;;;;;;;0.00;0.00;;;;;;;;;;5025780;28;20152;-72
2021/06/08 03:53:15;;;;;;;0.00;0.00;;;;;;;;;;5019807;28;20272;-73
2021/06/08 03:55:40;;;;;;;0.00;0.00;;;;;;;;;;5036332;28;20045;-73
2021/06/08 03:58:14;;;;;;;0.00;0.00;;;;;;;;;;5039533;28;20018;-73
2021/06/08 04:00:40;;;;;;;0.00;0.00;;;;;;;;;;5037536;28;20023;-72
2021/06/08 04:03:06;;;;;;;0.00;0.00;;;;;;;;;;5022944;28;20052;-72
2021/06/08 04:05:31;;;;;;;0.00;0.00;;;;;;;;;;5025642;28;20668;-72
2021/06/08 04:07:56;;;;;;;0.00;0.00;;;;;;;;;;5026613;28;20021;-73
2021/06/08 04:10:22;;;;;;;0.00;0.00;;;;;;;;;;5045860;28;20029;-72
2021/06/08 04:12:47;;;;;;;0.00;0.00;;;;;;;;;;5045590;28;20625;-72
2021/06/08 04:15:12;;;;;;;0.00;0.00;;;;;;;;;;5028883;28;20041;-73
2021/06/08 04:17:38;;;;;;;0.00;0.00;;;;;;;;;;5044662;28;20447;-73
2021/06/08 04:20:04;;;;;;;0.00;0.00;;;;;;;;;;5045947;28;20436;-73
2021/06/08 04:22:30;;;;;;;0.00;0.00;;;;;;;;;;5044604;28;20038;-73
2021/06/08 04:24:55;;;;;;;0.00;0.00;;;;;;;;;;5044394;28;20489;-73
2021/06/08 04:27:27;;;;;;;0.00;0.00;;;;;;;;;;5044951;28;20025;-72
2021/06/08 04:29:52;;;;;;;0.00;0.00;;;;;;;;;;5045614;28;20025;-72
2021/06/08 04:32:18;;;;;;;0.00;0.00;;;;;;;;;;5028199;28;20125;-71
2021/06/08 04:34:47;;;;;;;0.00;0.00;;;;;;;;;;5027447;28;20104;-72
2021/06/08 04:37:12;;;;;;;0.00;0.00;;;;;;;;;;5028424;28;20061;-71
2021/06/08 04:39:38;;;;;;;0.00;0.00;;;;;;;;;;5028410;28;20048;-72
2021/06/08 04:42:03;;;;;;;0.00;0.00;;;;;;;;;;5027450;28;20267;-72
2021/06/08 04:44:28;;;;;;;0.00;0.00;;;;;;;;;;5044240;28;20056;-71
2021/06/08 04:46:55;;;;;;;0.00;0.00;;;;;;;;;;5026879;28;20080;-72
2021/06/08 04:49:20;;;;;;;0.00;0.00;;;;;;;;;;5044117;28;20306;-73
2021/06/08 04:51:45;;;;;;;0.00;0.00;;;;;;;;;;5027478;28;20481;-73
2021/06/08 04:54:10;;;;;;;0.00;0.00;;;;;;;;;;5029778;28;20274;-72
2021/06/08 04:56:35;;;;;;;0.00;0.00;;;;;;;;;;5028154;28;20260;-73
2021/06/08 04:59:01;;;;;;;0.00;0.00;;;;;;;;;;5042499;28;20057;-71
2021/06/08 05:01:27;;;;;;;0.00;0.00;;;;;;;;;;5042817;28;20767;-72
2021/06/08 05:03:55;;;;;;;0.00;0.00;;;;;;;;;;5043482;28;20272;-72
2021/06/08 05:06:22;;;;;;;0.00;0.00;;;;;;;;;;5043014;28;20076;-71
2021/06/08 05:08:52;;;;;;;0.00;0.00;;;;;;;;;;5043747;28;20023;-71
2021/06/08 05:11:21;;;;;;;0.00;0.00;;;;;;;;;;5042063;28;20088;-71
2021/06/08 05:13:48;;;;;;;0.00;0.00;;;;;;;;;;5043029;28;20852;-71
2021/06/08 05:16:13;;;;;;;0.00;0.00;;;;;;;;;;5041863;28;20009;-71
2021/06/08 05:18:41;;;;;;;0.00;0.00;;;;;;;;;;5039688;28;20032;-73
2021/06/08 05:21:08;;;;;;;0.00;0.00;;;;;;;;;;5040633;28;20013;-72
2021/06/08 05:23:34;;;;;;;0.00;0.00;;;;;;;;;;5041747;28;20148;-73
2021/06/08 05:25:59;;;;;;;0.00;0.00;;;;;;;;;;5039787;28;20550;-74
2021/06/08 05:28:24;;;;;;;0.00;0.00;;;;;;;;;;5024481;28;20025;-72
2021/06/08 05:30:49;;;;;;;0.00;0.00;;;;;;;;;;5040681;28;20017;-72
2021/06/08 05:33:19;;;;;;;0.00;0.00;;;;;;;;;;5039404;28;20020;-73
2021/06/08 05:35:44;;;;;;;0.00;0.00;;;;;;;;;;5041215;28;20020;-74
2021/06/08 05:38:09;;;;;;;0.00;0.00;;;;;;;;;;5024365;28;20470;-72
2021/06/08 05:40:37;;;;;;;0.00;0.00;;;;;;;;;;5039968;28;20022;-72
2021/06/08 05:43:02;;;;;;;0.00;0.00;;;;;;;;;;5037883;28;20283;-71
2021/06/08 05:45:29;;;;;;;0.00;0.00;;;;;;;;;;5019829;28;20034;-72
2021/06/08 05:47:54;;;;;;;0.00;0.00;;;;;;;;;;5022967;28;20030;-71
2021/06/08 05:50:20;;;;;;;0.00;0.00;;;;;;;;;;5025305;28;20489;-71
2021/06/08 05:52:45;;;;;;;0.00;0.00;;;;;;;;;;5023384;28;20025;-72
2021/06/08 05:55:11;;;;;;;0.00;0.00;;;;;;;;;;5023517;28;20601;-71
2021/06/08 05:57:36;;;;;;;0.00;0.00;;;;;;;;;;5042674;28;20029;-72
2021/06/08 06:00:04;;;;;;;0.00;0.00;;;;;;;;;;5038935;28;20022;-73
2021/06/08 06:02:33;;;;;;;0.00;0.00;;;;;;;;;;5024358;28;20382;-72
2021/06/08 06:04:58;;;;;;;0.00;0.00;;;;;;;;;;5040157;28;20038;-72
2021/06/08 06:07:23;;;;;;;0.00;0.00;;;;;;;;;;5040100;28;20032;-72
2021/06/08 06:09:48;;;;;;;0.00;0.00;;;;;;;;;;5041064;28;20273;-72
2021/06/08 06:12:14;;;;;;;0.00;0.00;;;;;;;;;;5037462;28;20466;-72
2021/06/08 06:14:39;;;;;;;0.00;0.00;;;;;;;;;;5037277;28;20268;-72
2021/06/08 06:17:04;;;;;;;0.00;0.00;;;;;;;;;;5040112;28;21011;-73
2021/06/08 06:19:29;;;;;;;0.00;0.00;;;;;;;;;;5024605;28;20028;-72
2021/06/08 06:21:55;;;;;;;0.00;0.00;;;;;;;;;;5042468;28;20032;-72
2021/06/08 06:24:20;;;;;;;0.00;0.00;;;;;;;;;;5042308;28;20029;-73
2021/06/08 06:26:45;;;;;;;0.00;0.00;;;;;;;;;;5023940;28;20378;-73
2021/06/08 06:29:13;;;;;;;0.00;0.00;;;;;;;;;;5006491;28;20067;-72
2021/06/08 06:31:38;;;;;;;0.00;0.00;;;;;;;;;;5023918;28;20430;-72
2021/06/08 06:34:03;;;;;;;0.00;0.00;;;;;;;;;;5037183;28;20072;-71
2021/06/08 06:36:29;;;;;;;0.00;0.00;;;;;;;;;;5040102;28;20358;-71
2021/06/08 06:38:55;;;;;;;0.00;0.00;;;;;;;;;;5025902;28;20029;-72
2021/06/08 06:41:20;;;;;;;0.00;0.00;;;;;;;;;;5037063;28;20026;-71
2021/06/08 06:43:49;;;;;;;0.00;0.00;;;;;;;;;;5036248;28;20049;-71
2021/06/08 06:46:15;;;;;;;0.00;0.00;;;;;;;;;;5024248;28;20277;-71
2021/06/08 06:48:41;;;;;;;0.00;0.00;;;;;;;;;;5020338;28;20076;-71
2021/06/08 06:51:06;;;;;;;0.00;0.00;;;;;;;;;;5024006;28;20029;-71
2021/06/08 06:53:31;;;;;;;0.00;0.00;;;;;;;;;;5005946;28;20018;-72
2021/06/08 06:55:57;;;;;;;0.00;0.00;;;;;;;;;;5018761;28;20681;-71
2021/06/08 06:58:22;;;;;;;0.00;0.00;;;;;;;;;;5000682;28;20276;-72
2021/06/08 07:00:47;;;;;;;0.00;0.00;;;;;;;;;;5019113;28;20113;-71
2021/06/08 07:03:14;;;;;;;0.00;0.00;;;;;;;;;;5016921;28;20461;-71
2021/06/08 07:05:39;;;;;;;0.00;0.00;;;;;;;;;;5003350;28;20056;-71
2021/06/08 07:08:05;;;;;;;0.00;0.00;;;;;;;;;;5019103;28;20485;-71
2021/06/08 07:10:30;;;;;;;0.00;0.00;;;;;;;;;;5033495;28;20075;-71
2021/06/08 07:12:56;;;;;;;0.00;0.00;;;;;;;;;;5019305;28;20060;-71
2021/06/08 07:15:25;;;;;;;0.00;0.00;;;;;;;;;;5033353;28;20260;-71
2021/06/08 07:17:50;;;;;;;0.00;0.00;;;;;;;;;;5041086;28;20029;-71
2021/06/08 07:20:17;;;;;;;0.00;0.00;;;;;;;;;;5017329;28;20536;-72
2021/06/08 07:22:43;;;;;;;0.00;0.00;;;;;;;;;;5038278;28;20260;-72
2021/06/08 07:25:11;;;;;;;0.00;0.00;;;;;;;;;;5016882;28;20664;-72
2021/06/08 07:27:36;;;;;;;0.00;0.00;;;;;;;;;;5017310;28;20025;-72
2021/06/08 07:30:02;;;;;;;0.00;0.00;;;;;;;;;;5018238;28;20032;-72
2021/06/08 07:32:46;;;;;;;0.00;0.00;;;;;;;;;;5017453;28;20029;-72
2021/06/08 07:35:16;;;;;;;0.00;0.00;;;;;;;;;;5023787;28;20032;-72
2021/06/08 07:37:48;;;;;;;0.00;0.00;;;;;;;;;;5017917;28;20045;-72
2021/06/08 07:40:17;;;;;;;0.00;0.00;;;;;;;;;;5003044;28;20018;-72
2021/06/08 07:42:42;;;;;;;0.00;0.00;;;;;;;;;;5018773;28;20108;-72
2021/06/08 07:45:14;;;;;;;0.00;0.00;;;;;;;;;;5016983;28;20070;-72
2021/06/08 07:47:39;;;;;;;0.00;0.00;;;;;;;;;;5038173;28;20022;-72
2021/06/08 07:50:06;;;;;;;0.00;0.00;;;;;;;;;;5033143;28;20029;-71
2021/06/08 07:52:31;;;;;;;0.00;0.00;;;;;;;;;;5039025;28;20293;-72
2021/06/08 07:54:56;;;;;;;0.00;0.00;;;;;;;;;;5016333;28;20054;-72
2021/06/08 07:57:23;;;;;;;0.00;0.00;;;;;;;;;;5024139;28;20634;-72
2021/06/08 07:59:49;;;;;;;0.00;0.00;;;;;;;;;;5017097;28;20742;-71
2021/06/08 08:02:17;;;;;;;0.00;0.00;;;;;;;;;;5019292;28;20057;-71
2021/06/08 08:04:48;;;;;;;0.00;0.00;;;;;;;;;;5019929;28;20050;-72
2021/06/08 08:07:13;;;;;;;0.00;0.00;;;;;;;;;;5020582;28;20489;-72
2021/06/08 08:09:39;;;;;;;0.00;0.00;;;;;;;;;;5021110;28;20018;-73
2021/06/08 08:12:04;;;;;;;0.00;0.00;;;;;;;;;;5018969;28;20271;-72
2021/06/08 08:14:29;;;;;;;0.00;0.00;;;;;;;;;;5019989;28;20775;-68
2021/06/08 08:16:56;;;;;;;0.10;0.00;;;;;;;;;;5034771;28;20026;-69
2021/06/08 08:19:21;;;;;;;0.00;0.00;;;;;;;;;;5013799;28;20030;-68
2021/06/08 08:21:47;;;;;;;0.00;0.00;;;;;;;;;;5016466;28;20025;-68
2021/06/08 08:24:12;;;;;;;0.00;0.00;;;;;;;;;;5034346;28;20029;-68
2021/06/08 08:26:38;;;;;;;0.00;0.00;;;;;;;;;;5033448;28;20075;-68
2021/06/08 08:29:04;;;;;;;0.00;0.00;;;;;;;;;;5022129;28;20268;-68
2021/06/08 08:31:29;;;;;;;0.00;0.00;;;;;;;;;;5019311;28;20026;-69
2021/06/08 08:33:55;;;;;;;0.00;0.00;;;;;;;;;;5004261;28;20032;-69
2021/06/08 08:36:20;;;;;;;0.00;0.00;;;;;;;;;;5016128;28;20021;-69
2021/06/08 08:38:45;;;;;;;0.00;0.00;;;;;;;;;;5020589;28;20096;-69
2021/06/08 08:41:10;;;;;;;0.00;0.00;;;;;;;;;;5022114;28;20053;-67
2021/06/08 08:43:36;;;;;;;0.00;0.00;;;;;;;;;;5035299;28;20718;-67
2021/06/08 08:46:01;;;;;;;0.00;0.00;;;;;;;;;;5032969;28;20079;-67
2021/06/08 08:48:26;;;;;;;0.00;0.00;;;;;;;;;;5036171;28;20057;-67
2021/06/08 08:50:51;;;;;;;0.00;0.00;;;;;;;;;;5036714;28;20548;-67
2021/06/08 08:53:19;;;;;;;0.00;0.00;;;;;;;;;;5024864;28;20021;-67
2021/06/08 08:55:45;;;;;;;0.00;0.00;;;;;;;;;;5023905;28;20079;-67
2021/06/08 08:58:11;;;;;;;0.00;0.00;;;;;;;;;;5022035;28;20022;-66
2021/06/08 09:00:36;;;;;;;0.00;0.00;;;;;;;;;;5021850;28;20029;-67
2021/06/08 09:03:06;;;;;;;0.00;0.00;;;;;;;;;;5019272;28;20028;-68
2021/06/08 09:05:35;;;;;;;0.00;0.00;;;;;;;;;;5018489;28;20371;-68
2021/06/08 09:08:00;;;;;;;0.00;0.00;;;;;;;;;;5022232;28;20410;-68
2021/06/08 09:10:25;;;;;;;0.00;0.00;;;;;;;;;;5036059;28;20051;-68
2021/06/08 09:12:51;;;;;;;0.00;0.00;;;;;;;;;;5020592;28;20025;-68
2021/06/08 09:15:16;;;;;;;0.00;0.00;;;;;;;;;;5042023;28;20277;-68
2021/06/08 09:17:41;;;;;;;0.00;0.00;;;;;;;;;;5025534;28;20056;-68
2021/06/08 09:20:10;;;;;;;0.00;0.00;;;;;;;;;;5041477;28;20072;-68
2021/06/08 09:22:58;;;;;;;0.00;0.00;;;;;;;;;;5018168;28;20030;-68
2021/06/08 09:25:36;;;;;;;0.00;0.00;;;;;;;;;;5021351;28;20553;-69
2021/06/08 09:28:20;;;;;;;0.00;0.00;;;;;;;;;;5026152;28;20121;-68
2021/06/08 09:30:49;;;;;;;0.00;0.00;;;;;;;;;;5026677;28;20021;-68
2021/06/08 09:33:21;;;;;;;0.00;0.00;;;;;;;;;;5003996;28;20466;-68
2021/06/08 09:35:53;;;;;;;0.00;0.00;;;;;;;;;;5008611;28;20099;-68
2021/06/08 09:38:19;;;;;;;0.00;0.00;;;;;;;;;;5041003;28;20029;-68
2021/06/08 09:40:44;;;;;;;0.00;0.00;;;;;;;;;;5022646;28;20040;-68
2021/06/08 09:43:11;;;;;;;0.00;0.00;;;;;;;;;;5004712;28;20072;-68
2021/06/08 09:45:46;;;;;;;0.00;0.00;;;;;;;;;;5023261;28;20021;-68
2021/06/08 09:48:11;;;;;;;;;;;;;;;;;;5017990;28;20624;-68
2021/06/08 09:50:37;;;;;;;0.00;0.00;;;;;;;;;;5039401;28;19909;-68
2021/06/08 09:53:15;;;;;;;0.00;0.00;;;;;;;;;;5034327;28;20029;-68
2021/06/08 09:55:47;;;;;;;0.00;0.00;;;;;;;;;;5043133;28;20477;-68
2021/06/08 09:58:12;;;;;;;0.00;0.00;;;;;;;;;;5021854;28;20014;-68
2021/06/08 10:00:37;;;;;;;0.00;0.00;;;;;;;;;;5021463;28;20029;-68
2021/06/08 10:03:02;;;;;;;0.00;0.00;;;;;;;;;;5018475;28;20029;-68
2021/06/08 10:05:29;;;;;;;0.00;0.00;;;;;;;;;;5023803;28;20280;-68
2021/06/08 10:08:03;;;;;;;0.00;0.00;;;;;;;;;;5024151;28;20025;-68
2021/06/08 10:10:55;;;;;;;0.00;0.00;;;;;;;;;;5023609;28;20075;-68
2021/06/08 10:13:23;;;;;;;0.00;0.00;;;;;;;;;;5019064;28;20036;-69
2021/06/08 10:15:57;;;;;;;0.00;0.00;;;;;;;;;;5023721;28;20116;-68
2021/06/08 10:18:22;;;;;;;0.00;0.00;;;;;;;;;;5037954;28;20635;-68
2021/06/08 10:20:49;;;;;;;0.00;0.00;;;;;;;;;;5035631;28;20041;-69
2021/06/08 10:23:19;;;;;;;0.00;0.00;;;;;;;;;;5034969;28;20025;-69
2021/06/08 10:25:45;;;;;;;0.00;0.00;;;;;;;;;;5002449;28;20028;-68
2021/06/08 10:28:13;;;;;;;0.00;0.00;;;;;;;;;;5007506;28;20013;-69
2021/06/08 10:30:42;;;;;;;0.00;0.00;;;;;;;;;;5007291;28;20112;-68
2021/06/08 10:33:07;;;;;;;0.00;0.00;;;;;;;;;;5024658;28;20096;-69
2021/06/08 10:35:35;;;;;;;0.00;0.00;;;;;;;;;;5000959;28;20109;-69
2021/06/08 10:38:01;;;;;;;0.00;0.00;;;;;;;;;;5020772;28;20064;-68
2021/06/08 10:40:29;;;;;;;0.00;0.00;;;;;;;;;;5015921;28;20060;-69
2021/06/08 10:42:54;;;;;;;0.00;0.00;;;;;;;;;;4996680;28;20029;-69
2021/06/08 10:45:19;;;;;;;0.00;0.00;;;;;;;;;;5019078;28;20017;-68
2021/06/08 10:47:51;;;;;;;0.00;0.00;;;;;;;;;;5022666;28;20029;-68
2021/06/08 10:50:26;;;;;;;0.00;0.00;;;;;;;;;;5003891;28;20275;-68
2021/06/08 10:52:55;;;;;;;0.00;0.00;;;;;;;;;;5035996;28;20029;-68
2021/06/08 10:55:27;;;;;;;0.00;0.00;;;;;;;;;;5015577;28;20109;-70
2021/06/08 10:57:54;;;;;;;0.00;0.00;;;;;;;;;;5023911;28;20029;-68
2021/06/08 11:00:25;;;;;;;0.00;0.00;;;;;;;;;;5018034;28;20036;-69
2021/06/08 11:03:00;;;;;;;0.00;0.00;;;;;;;;;;5019178;28;20021;-69
2021/06/08 11:05:43;;;;;;;0.00;0.00;;;;;;;;;;5023516;28;20075;-69
2021/06/08 11:08:09;;;;;;;0.00;0.00;;;;;;;;;;5026427;28;20029;-69
2021/06/08 11:10:34;;;;;;;0.00;0.00;;;;;;;;;;5018747;28;20096;-69
2021/06/08 11:13:11;;;;;;;0.00;0.00;;;;;;;;;;5025881;28;20088;-66
2021/06/08 11:15:37;;;;;;;0.00;0.00;;;;;;;;;;5026312;28;20014;-67
2021/06/08 11:18:18;;;;;;;0.00;0.00;;;;;;;;;;5020483;28;20028;-67
2021/06/08 11:20:43;;;;;;;0.00;0.00;;;;;;;;;;5015492;28;20036;-66
2021/06/08 11:23:08;;;;;;;0.00;0.00;;;;;;;;;;4999585;28;20025;-67
2021/06/08 11:25:38;;;;;;;0.00;0.00;;;;;;;;;;5015481;28;20033;-67
2021/06/08 11:28:04;;;;;;;0.00;0.00;;;;;;;;;;5036539;28;20032;-67
2021/06/08 11:30:31;;;;;;;0.00;0.00;;;;;;;;;;5017758;28;20053;-67
2021/06/08 11:32:56;;;;;;;0.00;0.00;;;;;;;;;;5014876;28;20006;-67
2021/06/08 11:35:36;;;;;;;0.00;0.00;;;;;;;;;;5020455;28;20079;-67
2021/06/08 11:38:05;;;;;;;0.00;0.00;;;;;;;;;;5022423;28;20025;-67
2021/06/08 11:40:30;;;;;;;0.00;0.00;;;;;;;;;;5016380;28;20096;-69
2021/06/08 11:42:55;;;;;;;0.00;0.00;;;;;;;;;;5023694;28;21312;-68
2021/06/08 11:45:53;;;;;;;0.00;0.00;;;;;;;;;;5027893;28;20052;-68
2021/06/08 11:48:36;;;;;;;0.00;0.00;;;;;;;;;;5024473;28;20102;-72
2021/06/08 11:51:24;;;;;;;0.00;0.00;;;;;;;;;;5036333;28;20022;-72
2021/06/08 11:53:56;;;;;;;0.00;0.00;;;;;;;;;;5016883;28;20034;-72
2021/06/08 11:56:21;;;;;;;0.00;0.00;;;;;;;;;;5018360;28;20185;-71
2021/06/08 11:58:46;;;;;;;0.00;0.00;;;;;;;;;;5018778;28;20121;-71
2021/06/08 12:01:31;;;;;;;0.00;0.00;;;;;;;;;;5020901;28;20033;-72
2021/06/08 12:04:00;;;;;;;0.00;0.00;;;;;;;;;;5020040;28;20032;-71
2021/06/08 12:06:58;;;;;;;0.00;0.00;;;;;;;;;;5017547;28;20394;-70
2021/06/08 12:09:23;;;;;;;0.00;0.00;;;;;;;;;;5023624;28;20029;-70
2021/06/08 12:11:49;;;;;;;0.00;0.00;;;;;;;;;;5016523;28;20017;-70
2021/06/08 12:14:14;;;;;;;0.00;0.00;;;;;;;;;;5016021;28;20058;-71
2021/06/08 12:16:39;;;;;;;0.00;0.00;;;;;;;;;;5015135;28;20021;-72
2021/06/08 12:19:08;;;;;;;0.00;0.00;;;;;;;;;;5033026;28;20413;-71
2021/06/08 12:21:33;;;;;;;0.00;0.00;;;;;;;;;;5018722;28;20296;-71
2021/06/08 12:23:59;;;;;;;0.00;0.00;;;;;;;;;;5023895;28;20033;-71
2021/06/08 12:26:24;;;;;;;0.00;0.00;;;;;;;;;;5015723;28;20021;-71
2021/06/08 12:29:05;;;;;;;0.00;0.00;;;;;;;;;;5023190;28;20553;-71
2021/06/08 12:31:30;;;;;;;0.00;0.00;;;;;;;;;;5022530;28;20093;-72
2021/06/08 12:33:56;;;;;;;0.00;0.00;;;;;;;;;;5026343;28;20599;-72
2021/06/08 12:36:21;;;;;;;0.00;0.00;;;;;;;;;;5037956;28;20025;-71
2021/06/08 12:38:56;;;;;;;0.00;0.00;;;;;;;;;;5022958;28;20449;-71
2021/06/08 12:41:25;;;;;;;0.00;0.00;;;;;;;;;;5023586;28;20018;-72
2021/06/08 12:43:55;;;;;;;0.00;0.00;;;;;;;;;;5023904;28;20136;-71
2021/06/08 12:46:24;;;;;;;0.00;0.00;;;;;;;;;;5022835;28;20729;-73
2021/06/08 12:49:08;;;;;;;0.00;0.00;;;;;;;;;;5040884;28;20037;-70
2021/06/08 12:51:37;;;;;;;0.00;0.00;;;;;;;;;;5025429;28;20109;-71
2021/06/08 12:54:06;;;;;;;0.00;0.00;;;;;;;;;;5037828;28;20025;-71
2021/06/08 12:56:31;;;;;;;0.00;0.00;;;;;;;;;;5042474;28;20030;-71
2021/06/08 12:58:57;;;;;;;0.00;0.00;;;;;;;;;;5040319;28;20028;-71
2021/06/08 13:01:22;;;;;;;0.00;0.00;;;;;;;;;;5022069;28;20018;-71
2021/06/08 13:03:48;;;;;;;0.00;0.00;;;;;;;;;;5039353;28;20267;-72
2021/06/08 13:06:13;;;;;;;0.00;0.00;;;;;;;;;;5019739;28;20028;-71
2021/06/08 13:08:42;;;;;;;0.00;0.00;;;;;;;;;;5039120;28;20022;-71
2021/06/08 13:11:18;;;;;;;0.00;0.00;;;;;;;;;;5042936;28;20025;-72
2021/06/08 13:13:44;;;;;;;0.00;0.00;;;;;;;;;;5025519;28;20029;-71
2021/06/08 13:16:29;;;;;;;0.00;0.00;;;;;;;;;;5022627;28;20623;-71
2021/06/08 13:18:55;;;;;;;0.00;0.00;;;;;;;;;;5023317;28;20034;-71
2021/06/08 13:21:31;;;;;;;0.00;0.00;;;;;;;;;;5017669;28;20080;-71
2021/06/08 13:24:15;;;;;;;0.00;0.00;;;;;;;;;;5038292;28;20025;-71
2021/06/08 13:26:40;;;;;;;;;;;;;;;;;;5037374;28;20017;-71
2021/06/08 13:29:17;;;;;;;0.00;0.00;;;;;;;;;;5026176;28;19916;-67
2021/06/08 13:31:42;;;;;;;0.00;0.00;;;;;;;;;;5016465;28;20022;-67
2021/06/08 13:34:18;;;;;;;0.00;0.00;;;;;;;;;;5040351;28;20045;-68
2021/06/08 13:36:43;;;;;;;0.00;0.00;;;;;;;;;;5041158;28;20497;-68
2021/06/08 13:39:17;;;;;;;0.00;0.00;;;;;;;;;;5036661;28;20109;-68
2021/06/08 13:41:42;;;;;;;;;;;;;;;;;;5044797;28;20025;-68
2021/06/08 13:44:08;;;;;;;0.00;0.00;;;;;;;;;;5031020;28;19913;-67
2021/06/08 13:46:34;;;;;;;0.00;0.00;;;;;;;;;;5040691;28;20386;-68
2021/06/08 13:49:01;;;;;;;0.00;0.00;;;;;;;;;;5036065;28;20418;-68
2021/06/08 13:52:00;;;;;;;0.00;0.00;;;;;;;;;;5013225;28;20026;-68
2021/06/08 13:54:26;;;;;;;0.00;0.00;;;;;;;;;;5017457;28;20032;-68
2021/06/08 13:57:17;;;;;;;0.00;0.00;;;;;;;;;;5021587;28;20037;-67
2021/06/08 14:02:45;;;;;;;0.00;0.00;;;;;;;;;;5034148;28;20086;-69
2021/06/08 14:05:50;;;;;;;0.00;0.00;;;;;;;;;;5045378;28;20529;-68
2021/06/08 14:08:15;;;;;;;0.00;0.00;;;;;;;;;;5023797;28;20030;-69
2021/06/08 14:10:50;;;;;;;0.00;0.00;;;;;;;;;;5023177;28;20083;-69
2021/06/08 14:13:16;;;;;;;0.00;0.00;;;;;;;;;;5005946;28;20017;-68
2021/06/08 14:15:48;;;;;;;0.00;0.00;;;;;;;;;;5015284;28;20763;-68
2021/06/08 14:18:13;;;;;;;0.00;0.00;;;;;;;;;;5029632;28;20465;-69
2021/06/08 14:20:38;;;;;;;0.00;0.00;;;;;;;;;;5019215;28;20028;-69
2021/06/08 14:23:04;;;;;;;0.00;0.00;;;;;;;;;;5036647;28;20276;-68
2021/06/08 14:25:29;;;;;;;0.00;0.00;;;;;;;;;;5043006;28;20279;-68
2021/06/08 14:27:55;;;;;;;0.00;0.00;;;;;;;;;;5035141;28;20691;-68
2021/06/08 14:30:20;;;;;;;0.00;0.00;;;;;;;;;;5024193;28;20097;-68
2021/06/08 14:32:45;;;;;;;0.00;0.00;;;;;;;;;;5028434;28;20276;-68
2021/06/08 14:35:11;;;;;;;0.00;0.00;;;;;;;;;;5033977;28;20018;-67
2021/06/08 14:37:36;;;;;;;0.00;0.00;;;;;;;;;;5015349;28;20029;-67
2021/06/08 14:40:02;;;;;;;0.00;0.00;;;;;;;;;;5017618;28;20040;-67
2021/06/08 14:42:30;;;;;;;0.00;0.00;;;;;;;;;;4998441;28;20033;-67
2021/06/08 14:44:55;;;;;;;0.00;0.00;;;;;;;;;;5019579;28;20064;-67
2021/06/08 14:47:20;;;;;;;0.00;0.00;;;;;;;;;;5035010;28;20025;-67
2021/06/08 14:49:45;;;;;;;0.00;0.00;;;;;;;;;;5023043;28;20093;-67